Reklama
Líbí se Vám tento web? Budeme velmi rádi, pokud přidáte hodnocení +1

Seznam meteostanic a jejich METAR

Vyhledat místa podle abecedy:
A B C D E F G H I J K L M N O P Q R S T U V W X Y Z

Filtrovat:

ID stanice:
a/nebo
Název místa (fulltext):
 
Místo (ID)Naposledy načteno 
Iasi (LRIA) 21.06.2018 02:00 UTC Zobrazit METAR
LRIA 210200Z 28004KT CAVOK 19/18 Q1019
Ibiza (LEIB) 21.06.2018 02:00 UTC Zobrazit METAR
LEIB 210200Z 35004KT CAVOK 20/15 Q1018 NOSIG
Innsbruck (LOWI) 21.06.2018 01:50 UTC Zobrazit METAR
LOWI 210150Z AUTO 00000KT 9999 NSC 17/14 Q1019
Iraklion (LGIR) 21.06.2018 01:50 UTC Zobrazit METAR
LGIR 210150Z 17004KT CAVOK 20/17 Q1014 NOSIG
Isafjordur (BIIS) 20.06.2018 20:00 UTC Zobrazit METAR
BIIS 202000Z 05007KT CAVOK 09/03 Q1017
Isla de Pascua (SCIP) 21.06.2018 02:00 UTC Zobrazit METAR
SCIP 210200Z 13018KT 9999 FEW020 BKN040 19/11 Q1026 NOSIG
Islamabad (OPRN) 21.06.2018 02:00 UTC Zobrazit METAR
OPRN 210200Z 00000KT CAVOK 29/15 Q1006 NOSIG RMK A2971
Istanbul (LTBA) 21.06.2018 01:50 UTC Zobrazit METAR
LTBA 210150Z 02007KT CAVOK 23/20 Q1015 NOSIG
Ivano-Frankivs'k (UKLI) Zatím nenačteno  
Reklama

Počasí na Váš email

Emaily jsou bez reklamy a bez spamu



Odhlásit newsletter

Reklama


Lunární kalendář

  • 28.06.
  • 06.07.
  • 13.07.
  • 19.07.



Slunečno.cz na Google+

Reklama


Reklama
Povinné ručení
Reklama




Reklama